Time;durP1;ratioP1;P1;durP2;ratioP2;P2;SDS_P1;SDS_P2;PMS_P1;PMS_P2;Temp;Humidity;BMP_temperature;BMP_pressure;BME280_temperature;BME280_humidity;BME280_pressure;Samples;Min_cycle;Max_cycle;Signal;HPM_P1;HPM_P2
2023/09/22 00:03:32;;;;;;;1.45;0.68;;;;;;;15.62;67.35;98404.78;10277145;28;20054;-61
2023/09/22 00:08:34;;;;;;;0.75;0.43;;;;;;;15.55;67.17;98405.56;10292585;28;20779;-61
2023/09/22 00:13:36;;;;;;;0.82;0.55;;;;;;;15.60;67.20;98393.56;10295296;28;20179;-61
2023/09/22 00:18:38;;;;;;;1.52;1.00;;;;;;;15.62;67.01;98406.56;10295765;28;20142;-61
2023/09/22 00:23:40;;;;;;;0.63;0.40;;;;;;;15.65;67.08;98414.19;10291527;28;20066;-61
2023/09/22 00:28:42;;;;;;;0.95;0.60;;;;;;;15.62;66.79;98398.66;10291502;28;20039;-61
2023/09/22 00:33:44;;;;;;;0.43;0.40;;;;;;;15.58;66.63;98394.69;10294015;28;20138;-61
2023/09/22 00:38:47;;;;;;;0.90;0.70;;;;;;;15.55;66.76;98392.41;10276884;28;20054;-60
2023/09/22 00:43:49;;;;;;;0.90;0.60;;;;;;;15.43;66.80;98405.81;10294860;28;20223;-61
2023/09/22 00:48:53;;;;;;;0.70;0.70;;;;;;;15.32;66.97;98437.72;10294417;28;20069;-61
2023/09/22 00:53:55;;;;;;;0.77;0.60;;;;;;;15.18;67.08;98440.13;10293533;28;20129;-60
2023/09/22 00:58:58;;;;;;;2.58;1.05;;;;;;;15.17;66.95;98460.34;10292692;28;20191;-61
2023/09/22 01:04:00;;;;;;;0.95;0.50;;;;;;;15.21;67.11;98429.25;10294017;28;20424;-61
2023/09/22 01:09:09;;;;;;;1.30;0.80;;;;;;;15.14;67.01;98434.31;10278945;28;20065;-61
2023/09/22 01:14:11;;;;;;;4.90;1.13;;;;;;;14.94;66.85;98419.72;10297945;28;20046;-60
2023/09/22 01:19:16;;;;;;;1.25;0.80;;;;;;;14.99;66.69;98435.06;10268432;28;20056;-61
2023/09/22 01:24:19;;;;;;;0.82;0.70;;;;;;;14.96;66.71;98438.81;10297118;28;20066;-60
2023/09/22 01:29:21;;;;;;;0.60;0.52;;;;;;;14.80;66.53;98441.34;10297175;28;20445;-60
2023/09/22 01:34:23;;;;;;;1.52;0.85;;;;;;;14.68;66.49;98452.28;10297716;28;20099;-60
2023/09/22 01:39:25;;;;;;;1.23;0.68;;;;;;;14.55;66.68;98447.44;10279387;28;20057;-61
2023/09/22 01:44:27;;;;;;;0.95;0.65;;;;;;;14.41;66.73;98443.50;10280065;28;20544;-60
2023/09/22 01:49:31;;;;;;;2.22;0.80;;;;;;;14.31;66.97;98453.25;10279569;28;20046;-60
2023/09/22 01:54:33;;;;;;;1.35;0.70;;;;;;;14.19;67.18;98451.84;10296896;28;20141;-61
2023/09/22 01:59:35;;;;;;;2.17;0.70;;;;;;;14.10;67.11;98459.81;10296921;28;20514;-60
2023/09/22 02:04:37;;;;;;;1.33;0.63;;;;;;;14.11;67.26;98450.94;10317425;28;20335;-60
2023/09/22 02:09:39;;;;;;;2.05;0.70;;;;;;;14.10;66.78;98444.88;10303172;28;20077;-61
2023/09/22 02:14:42;;;;;;;0.77;0.68;;;;;;;14.08;66.70;98453.88;10303961;28;20458;-60
2023/09/22 02:19:45;;;;;;;2.10;1.00;;;;;;;13.85;66.77;98466.59;10301078;28;20390;-60
2023/09/22 02:24:47;;;;;;;0.73;0.47;;;;;;;13.77;66.77;98466.50;10289519;28;20068;-60
2023/09/22 02:29:49;;;;;;;1.20;0.63;;;;;;;13.81;67.01;98459.16;10310697;28;20046;-61
2023/09/22 02:34:51;;;;;;;1.90;0.70;;;;;;;13.82;67.03;98453.75;10309871;28;20046;-60
2023/09/22 02:39:53;;;;;;;1.83;0.65;;;;;;;13.74;66.99;98451.03;10292265;28;20894;-60
2023/09/22 02:44:55;;;;;;;3.03;0.70;;;;;;;13.69;66.91;98437.53;10291990;28;20061;-60
2023/09/22 02:49:57;;;;;;;0.52;0.52;;;;;;;13.71;67.03;98448.72;10292012;28;20482;-60
2023/09/22 02:54:59;;;;;;;1.00;0.80;;;;;;;13.80;67.00;98460.16;10309290;28;20046;-60
2023/09/22 03:00:11;;;;;;;0.98;0.70;;;;;;;13.57;66.48;98457.09;10309035;28;20050;-60
2023/09/22 03:05:16;;;;;;;0.80;0.60;;;;;;;13.39;66.70;98469.31;10301379;28;20169;-61
2023/09/22 03:10:22;;;;;;;5.00;0.90;;;;;;;13.22;67.13;98470.88;10299830;28;20043;-60
2023/09/22 03:15:25;;;;;;;4.43;1.25;;;;;;;13.02;67.55;98464.03;10269236;28;20034;-60
2023/09/22 03:20:26;;;;;;;0.98;0.63;;;;;;;13.12;67.53;98471.88;10301413;28;20213;-60
2023/09/22 03:25:28;;;;;;;1.00;0.75;;;;;;;13.11;67.31;98497.28;10283961;28;20172;-60
2023/09/22 03:30:31;;;;;;;1.17;0.75;;;;;;;13.02;67.59;98513.06;10301766;28;20042;-60
2023/09/22 03:35:36;;;;;;;3.42;0.90;;;;;;;13.05;67.58;98518.84;10281351;28;20050;-60
2023/09/22 03:40:41;;;;;;;5.00;0.57;;;;;;;13.07;67.57;98485.41;10315797;28;20058;-60
2023/09/22 03:45:43;;;;;;;1.00;0.73;;;;;;;13.08;67.45;98489.72;10282984;28;20049;-61
2023/09/22 03:50:46;;;;;;;0.70;0.50;;;;;;;13.12;67.17;98492.88;10283352;28;20431;-60
2023/09/22 03:55:49;;;;;;;0.75;0.65;;;;;;;13.01;66.96;98475.50;10300770;28;20143;-60
2023/09/22 04:01:06;;;;;;;1.75;0.85;;;;;;;12.96;67.35;98502.16;10282368;28;20122;-61
2023/09/22 04:06:08;;;;;;;1.02;0.70;;;;;;;12.89;67.06;98498.44;10266056;28;20039;-62
2023/09/22 04:11:10;;;;;;;0.47;0.47;;;;;;;12.76;67.60;98513.63;10281514;28;20049;-61
2023/09/22 04:16:12;;;;;;;1.17;0.80;;;;;;;12.83;67.64;98520.00;10301538;28;20054;-62
2023/09/22 04:21:14;;;;;;;1.00;0.70;;;;;;;12.87;67.37;98517.91;10298416;28;20061;-61
2023/09/22 04:26:16;;;;;;;2.30;0.90;;;;;;;12.86;67.57;98542.50;10300765;28;20068;-62
2023/09/22 04:31:19;;;;;;;0.93;0.80;;;;;;;12.97;67.55;98560.72;10299300;28;20082;-62
2023/09/22 04:36:22;;;;;;;1.48;0.95;;;;;;;12.98;67.58;98550.06;10299849;28;20049;-61
2023/09/22 04:41:24;;;;;;;1.35;0.68;;;;;;;12.98;67.36;98538.78;10296813;28;20108;-62
2023/09/22 04:46:26;;;;;;;1.35;0.82;;;;;;;13.02;67.68;98547.19;10297643;28;20112;-62
2023/09/22 04:51:28;;;;;;;1.63;0.80;;;;;;;13.12;67.36;98545.38;10299663;28;20058;-61
2023/09/22 04:56:32;;;;;;;1.65;1.00;;;;;;;13.21;67.20;98542.72;10297338;28;20058;-61
2023/09/22 05:01:34;;;;;;;4.57;0.55;;;;;;;13.19;67.32;98551.72;10297356;28;20060;-62
2023/09/22 05:06:36;;;;;;;3.15;0.75;;;;;;;13.30;67.41;98577.81;10298770;28;20259;-62
2023/09/22 05:11:38;;;;;;;1.02;0.75;;;;;;;13.41;67.37;98575.03;10298087;28;20137;-62
2023/09/22 05:16:42;;;;;;;2.38;0.90;;;;;;;13.46;66.81;98562.31;10296402;28;20282;-62
2023/09/22 05:21:44;;;;;;;1.80;1.00;;;;;;;13.57;67.00;98588.44;10299187;28;20119;-62
2023/09/22 05:26:46;;;;;;;0.95;0.80;;;;;;;13.59;67.11;98573.34;10298396;28;20030;-62
2023/09/22 05:31:48;;;;;;;1.80;1.02;;;;;;;13.42;67.44;98556.53;10253063;28;20308;-61
2023/09/22 05:36:50;;;;;;;0.60;0.60;;;;;;;13.54;67.02;98568.50;10298700;28;20042;-62
2023/09/22 05:41:52;;;;;;;1.35;0.82;;;;;;;13.58;66.89;98567.25;10279344;28;20046;-62
2023/09/22 05:46:55;;;;;;;1.65;0.77;;;;;;;13.53;67.21;98566.88;10296342;28;20129;-62
2023/09/22 05:51:57;;;;;;;1.08;0.75;;;;;;;13.65;66.85;98570.16;10296822;28;20039;-62
2023/09/22 05:56:59;;;;;;;3.25;0.90;;;;;;;13.87;66.71;98559.25;10294635;28;20077;-62
2023/09/22 06:02:01;;;;;;;1.15;0.95;;;;;;;13.90;66.56;98569.50;10303552;28;20056;-62
2023/09/22 06:07:03;;;;;;;1.50;0.85;;;;;;;13.95;66.29;98582.19;10303106;28;20053;-62
2023/09/22 06:12:06;;;;;;;1.85;1.10;;;;;;;13.88;66.14;98592.44;10303900;28;20219;-62
2023/09/22 06:17:08;;;;;;;0.95;0.70;;;;;;;13.93;66.18;98587.59;10285695;28;20046;-62
2023/09/22 06:22:10;;;;;;;0.80;0.80;;;;;;;13.99;65.97;98605.41;10303421;28;20066;-62
2023/09/22 06:27:12;;;;;;;2.25;0.98;;;;;;;13.84;66.15;98598.97;10285308;28;20042;-62
2023/09/22 06:32:14;;;;;;;3.90;0.70;;;;;;;13.97;66.04;98602.09;10302506;28;20123;-62
2023/09/22 06:37:17;;;;;;;0.70;0.70;;;;;;;14.29;66.03;98639.31;10280390;28;20081;-62
2023/09/22 06:42:19;;;;;;;2.20;1.20;;;;;;;14.23;65.80;98624.13;10303168;28;20078;-62
2023/09/22 06:47:23;;;;;;;1.95;1.00;;;;;;;14.38;65.64;98629.72;10286991;28;20045;-62
2023/09/22 06:52:25;;;;;;;1.67;0.80;;;;;;;14.49;65.16;98619.03;10302728;28;20058;-62
2023/09/22 06:57:27;;;;;;;4.50;1.77;;;;;;;14.50;65.56;98629.41;10302513;28;20824;-61
2023/09/22 07:02:29;;;;;;;7.57;2.08;;;;;;;14.62;65.13;98627.38;10284754;28;20108;-61
2023/09/22 07:07:32;;;;;;;3.28;1.48;;;;;;;14.73;64.97;98647.41;10301270;28;20042;-62
2023/09/22 07:12:34;;;;;;;1.70;1.02;;;;;;;14.71;65.09;98630.94;10301092;28;20760;-61
2023/09/22 07:17:36;;;;;;;1.75;1.10;;;;;;;14.90;64.88;98642.13;10301212;28;20042;-62
2023/09/22 07:22:38;;;;;;;0.95;0.70;;;;;;;14.86;64.50;98645.25;10301668;28;20832;-62
2023/09/22 07:27:43;;;;;;;1.52;0.98;;;;;;;14.91;64.91;98649.06;10301368;28;20052;-62
2023/09/22 07:32:45;;;;;;;1.55;1.00;;;;;;;15.00;64.58;98652.63;10300614;28;20506;-61
2023/09/22 07:37:48;;;;;;;1.67;0.80;;;;;;;15.32;64.25;98651.09;10285885;28;20046;-62
2023/09/22 07:42:50;;;;;;;4.80;1.20;;;;;;;15.66;63.95;98656.47;10300336;28;20074;-63
2023/09/22 07:47:52;;;;;;;2.13;1.05;;;;;;;16.08;63.25;98652.13;10293559;28;20057;-64
2023/09/22 07:52:56;;;;;;;3.90;0.90;;;;;;;16.39;62.51;98654.22;10294217;28;20046;-63
2023/09/22 07:57:58;;;;;;;1.73;1.00;;;;;;;16.83;61.98;98643.34;10296559;28;20690;-63
2023/09/22 08:03:01;;;;;;;2.75;0.95;;;;;;;17.07;60.92;98647.84;10295040;28;20045;-63
2023/09/22 08:08:05;;;;;;;1.33;0.85;;;;;;;17.52;60.60;98644.75;10293395;28;20065;-63
2023/09/22 08:13:10;;;;;;;3.15;1.52;;;;;;;17.75;59.58;98633.31;10293790;28;20133;-64
2023/09/22 08:18:12;;;;;;;1.27;0.85;;;;;;;17.95;58.85;98641.72;10286444;28;20050;-63
2023/09/22 08:23:15;;;;;;;2.80;1.30;;;;;;;18.08;58.81;98643.81;10209410;28;20047;-63
2023/09/22 08:28:20;;;;;;;2.53;0.90;;;;;;;17.66;58.66;98663.41;10206415;28;20043;-63
2023/09/22 08:33:22;;;;;;;1.25;0.80;;;;;;;17.66;58.30;98654.66;10210347;28;20051;-63
2023/09/22 08:38:25;;;;;;;0.98;0.73;;;;;;;18.22;56.87;98648.44;10208479;28;20400;-63
2023/09/22 08:43:29;;;;;;;2.30;0.98;;;;;;;18.82;55.08;98643.34;10209826;28;20173;-63
2023/09/22 08:48:32;;;;;;;0.93;0.50;;;;;;;18.67;54.92;98648.56;10208721;28;20043;-63
2023/09/22 08:53:36;;;;;;;4.13;0.90;;;;;;;18.60;54.36;98659.03;10208266;28;20134;-63
2023/09/22 08:58:40;;;;;;;2.00;0.57;;;;;;;18.38;54.15;98669.56;10209661;28;20062;-63
2023/09/22 09:03:44;;;;;;;1.85;0.88;;;;;;;17.91;52.97;98658.09;10211016;28;20058;-63
2023/09/22 09:09:12;;;;;;;1.42;0.80;;;;;;;17.85;51.72;98664.88;10243028;28;20130;-63
2023/09/22 09:14:23;;;;;;;1.38;0.75;;;;;;;18.38;50.03;98666.91;10211255;28;20420;-63
2023/09/22 09:19:30;;;;;;;2.22;0.50;;;;;;;18.33;51.84;98670.06;10209609;28;20133;-63
2023/09/22 09:24:33;;;;;;;2.10;0.70;;;;;;;18.91;50.44;98669.59;10278328;28;20055;-63
2023/09/22 09:29:36;;;;;;;1.75;0.77;;;;;;;18.53;50.24;98659.88;10288483;28;20155;-63
2023/09/22 09:34:40;;;;;;;3.20;0.40;;;;;;;18.28;49.62;98658.34;10289038;28;20482;-63
2023/09/22 09:39:52;;;;;;;1.45;0.50;;;;;;;18.17;49.47;98664.78;10293127;28;20042;-63
2023/09/22 09:45:01;;;;;;;1.20;0.60;;;;;;;18.57;50.82;98661.19;10297811;28;20060;-63
2023/09/22 09:50:08;;;;;;;1.17;0.60;;;;;;;19.19;49.18;98667.31;10285616;28;20046;-63
2023/09/22 09:55:12;;;;;;;0.88;0.43;;;;;;;19.08;49.44;98660.59;10282517;28;20050;-63
2023/09/22 10:00:19;;;;;;;0.52;0.50;;;;;;;19.36;48.93;98651.09;10300141;28;20054;-63
2023/09/22 10:05:21;;;;;;;2.80;1.17;;;;;;;19.48;48.12;98653.34;10281509;28;20395;-63
2023/09/22 10:10:25;;;;;;;1.65;0.70;;;;;;;19.38;48.64;98656.22;10298939;28;20541;-63
2023/09/22 10:15:50;;;;;;;1.75;0.77;;;;;;;19.12;46.85;98661.06;10299303;28;20129;-63
2023/09/22 10:20:53;;;;;;;1.17;0.50;;;;;;;18.62;48.76;98662.34;10286696;28;20509;-63
2023/09/22 10:26:16;;;;;;;2.25;0.73;;;;;;;18.68;47.96;98658.16;10294666;28;20046;-63
2023/09/22 10:31:18;;;;;;;3.88;0.95;;;;;;;18.67;49.46;98661.00;10294630;28;20082;-63
2023/09/22 10:36:47;;;;;;;1.75;0.70;;;;;;;18.86;47.94;98660.53;10293757;28;20485;-63
2023/09/22 10:42:08;;;;;;;1.65;0.57;;;;;;;18.81;46.59;98658.41;10295255;28;20522;-63
2023/09/22 10:47:11;;;;;;;1.17;0.60;;;;;;;19.30;48.55;98662.41;10295423;28;20053;-63
2023/09/22 10:52:17;;;;;;;0.70;0.70;;;;;;;18.94;48.16;98666.63;10285408;28;20077;-63
2023/09/22 10:57:27;;;;;;;1.15;0.60;;;;;;;18.98;47.18;98661.78;10290517;28;20047;-63
2023/09/22 11:02:30;;;;;;;0.85;0.77;;;;;;;18.83;48.17;98677.59;10276581;28;20062;-63
2023/09/22 11:07:33;;;;;;;0.82;0.40;;;;;;;18.73;48.31;98678.84;10274900;28;20083;-63
2023/09/22 11:12:36;;;;;;;1.42;1.05;;;;;;;18.69;48.40;98675.69;10279558;28;20407;-63
2023/09/22 11:17:39;;;;;;;2.08;0.70;;;;;;;18.74;48.11;98676.00;10287921;28;20042;-63
2023/09/22 11:22:42;;;;;;;1.10;0.57;;;;;;;18.95;46.88;98678.84;10249698;28;20829;-63
2023/09/22 11:27:52;;;;;;;2.83;1.08;;;;;;;19.10;46.70;98671.84;10289886;28;20046;-63
2023/09/22 11:32:57;;;;;;;0.50;0.50;;;;;;;19.46;47.20;98687.97;10293321;28;20597;-63
2023/09/22 11:38:01;;;;;;;1.63;0.65;;;;;;;19.36;46.24;98679.44;10288520;28;20068;-63
2023/09/22 11:43:04;;;;;;;1.48;0.70;;;;;;;19.37;46.66;98671.31;10293622;28;20074;-64
2023/09/22 11:48:06;;;;;;;0.95;0.50;;;;;;;19.32;46.34;98672.84;10272302;28;20046;-61
2023/09/22 11:53:18;;;;;;;1.23;0.57;;;;;;;19.41;45.20;98677.94;10289183;28;20062;-61
2023/09/22 11:58:20;;;;;;;3.75;1.10;;;;;;;19.56;45.35;98670.03;10289020;28;20060;-61
2023/09/22 12:03:22;;;;;;;1.23;0.60;;;;;;;19.73;44.56;98660.88;10290902;28;20054;-61
2023/09/22 12:08:24;;;;;;;0.80;0.60;;;;;;;19.63;44.75;98659.50;10293873;28;20303;-61
2023/09/22 12:13:26;;;;;;;1.20;0.70;;;;;;;19.62;44.81;98647.25;10296306;28;20049;-61
2023/09/22 12:18:28;;;;;;;1.25;0.68;;;;;;;19.89;44.95;98651.97;10277513;28;20077;-61
2023/09/22 12:23:33;;;;;;;1.35;0.60;;;;;;;19.91;43.84;98637.53;10294422;28;20050;-61
2023/09/22 12:28:35;;;;;;;1.13;0.50;;;;;;;19.87;43.64;98638.06;10292946;28;20168;-61
2023/09/22 12:33:38;;;;;;;0.82;0.60;;;;;;;19.85;43.50;98634.75;10290875;28;20128;-61
2023/09/22 12:38:41;;;;;;;1.70;0.90;;;;;;;19.92;43.53;98630.41;10265627;28;20050;-61
2023/09/22 12:43:43;;;;;;;0.70;0.50;;;;;;;19.92;42.85;98636.53;10278169;28;20055;-60
2023/09/22 12:48:46;;;;;;;2.58;0.60;;;;;;;19.94;43.29;98641.66;10271735;28;20057;-64
2023/09/22 12:53:49;;;;;;;1.08;0.70;;;;;;;19.70;43.32;98644.53;10280932;28;20045;-62
2023/09/22 12:58:51;;;;;;;1.50;0.70;;;;;;;19.67;43.09;98632.44;10267669;28;20429;-62
2023/09/22 13:03:54;;;;;;;2.53;0.80;;;;;;;19.83;42.97;98631.47;10283661;28;20417;-61
2023/09/22 13:08:56;;;;;;;1.48;0.63;;;;;;;20.00;41.81;98628.47;10280042;28;21504;-61
2023/09/22 13:13:58;;;;;;;2.03;1.10;;;;;;;19.83;43.06;98624.34;10295647;28;20042;-61
2023/09/22 13:19:00;;;;;;;1.92;0.70;;;;;;;19.70;43.07;98628.59;10289119;28;20047;-61
2023/09/22 13:24:04;;;;;;;3.20;0.90;;;;;;;19.61;43.03;98625.19;10293372;28;20133;-61
2023/09/22 13:29:06;;;;;;;0.88;0.70;;;;;;;19.84;41.23;98620.69;10274818;28;20311;-62
2023/09/22 13:34:08;;;;;;;1.42;0.90;;;;;;;19.99;40.00;98624.16;10296164;28;20043;-61
2023/09/22 13:39:11;;;;;;;1.45;0.60;;;;;;;20.23;42.15;98617.78;10294668;28;20076;-61
2023/09/22 13:44:13;;;;;;;18.25;1.40;;;;;;;20.49;41.51;98614.63;10295790;28;20050;-61
2023/09/22 13:49:15;;;;;;;1.08;0.70;;;;;;;20.56;41.77;98600.38;10294692;28;20058;-62
2023/09/22 13:54:17;;;;;;;2.15;0.85;;;;;;;20.47;41.35;98598.03;10278504;28;20046;-61
2023/09/22 13:59:20;;;;;;;1.00;0.60;;;;;;;20.30;41.43;98602.72;10277708;28;20054;-61
2023/09/22 14:04:22;;;;;;;1.40;0.80;;;;;;;20.45;42.03;98582.31;10294612;28;20142;-61
2023/09/22 14:09:23;;;;;;;1.40;0.70;;;;;;;20.70;41.46;98580.97;10288626;28;20051;-62
2023/09/22 14:14:26;;;;;;;1.85;0.68;;;;;;;20.77;40.37;98584.53;10288456;28;20046;-61
2023/09/22 14:19:31;;;;;;;2.50;0.55;;;;;;;20.43;40.55;98589.63;10260900;28;20053;-61
2023/09/22 14:24:34;;;;;;;1.90;0.60;;;;;;;20.26;40.45;98588.19;10298501;28;20073;-62
2023/09/22 14:29:37;;;;;;;2.33;0.73;;;;;;;20.24;40.69;98588.38;10297501;28;20111;-62
2023/09/22 14:34:42;;;;;;;1.67;0.90;;;;;;;20.41;40.63;98573.06;10295394;28;20536;-62
2023/09/22 14:39:44;;;;;;;0.85;0.63;;;;;;;20.80;38.91;98578.84;10294411;28;20552;-62
2023/09/22 14:44:46;;;;;;;0.85;0.60;;;;;;;20.97;38.84;98577.56;10289773;28;20050;-62
2023/09/22 14:49:49;;;;;;;1.35;0.70;;;;;;;21.35;39.19;98579.97;10292714;28;20431;-62
2023/09/22 14:54:51;;;;;;;3.95;0.82;;;;;;;21.35;38.92;98582.63;10274704;28;20062;-62
2023/09/22 14:59:53;;;;;;;3.72;0.93;;;;;;;21.23;39.27;98579.66;10270224;28;20056;-61
2023/09/22 15:04:56;;;;;;;1.35;0.73;;;;;;;21.07;39.64;98582.56;10294877;28;20407;-62
2023/09/22 15:09:58;;;;;;;3.55;0.90;;;;;;;20.98;39.87;98592.50;10270744;28;20046;-62
2023/09/22 15:15:02;;;;;;;0.75;0.50;;;;;;;20.68;40.06;98590.16;10302051;28;20050;-62
2023/09/22 15:20:06;;;;;;;1.25;0.65;;;;;;;20.35;40.56;98586.25;10302915;28;20085;-62
2023/09/22 15:25:10;;;;;;;1.20;0.88;;;;;;;20.06;41.75;98600.38;10302017;28;20048;-62
2023/09/22 15:30:12;;;;;;;1.60;0.73;;;;;;;19.68;42.21;98596.13;10240731;28;20042;-62
2023/09/22 15:35:15;;;;;;;0.50;0.50;;;;;;;19.47;43.18;98602.13;10301863;28;20038;-62
2023/09/22 15:40:17;;;;;;;1.33;0.70;;;;;;;19.31;43.09;98599.63;10256494;28;20057;-62
2023/09/22 15:45:21;;;;;;;1.10;0.60;;;;;;;19.21;43.23;98601.69;10283748;28;20054;-62
2023/09/22 15:50:26;;;;;;;1.38;0.70;;;;;;;19.20;44.45;98605.34;10302435;28;20054;-62
2023/09/22 15:55:29;;;;;;;0.50;0.50;;;;;;;19.09;44.45;98603.13;10298528;28;20057;-62
2023/09/22 16:00:32;;;;;;;1.38;0.80;;;;;;;18.98;44.53;98603.50;10282167;28;20057;-62
2023/09/22 16:05:34;;;;;;;1.70;0.80;;;;;;;18.85;45.48;98592.69;10299751;28;20050;-62
2023/09/22 16:10:36;;;;;;;1.95;0.70;;;;;;;18.83;45.44;98606.06;10282244;28;20555;-62
2023/09/22 16:15:39;;;;;;;1.70;0.80;;;;;;;18.73;46.40;98608.13;10299933;28;20046;-62
2023/09/22 16:20:41;;;;;;;2.17;1.10;;;;;;;18.67;46.96;98624.72;10299433;28;20064;-62
2023/09/22 16:25:44;;;;;;;1.10;0.90;;;;;;;18.58;47.71;98727.22;10298025;28;20055;-63
2023/09/22 16:30:46;;;;;;;0.95;0.65;;;;;;;16.70;51.93;98797.94;10294967;28;20053;-61
2023/09/22 16:35:50;;;;;;;0.75;0.50;;;;;;;15.77;53.77;98790.69;10294361;28;20053;-61
2023/09/22 16:40:53;;;;;;;1.05;1.00;;;;;;;15.35;55.19;98811.47;10291952;28;20054;-61
2023/09/22 16:45:55;;;;;;;0.95;0.68;;;;;;;15.04;56.28;98822.50;10271262;28;20498;-61
2023/09/22 16:51:05;;;;;;;0.80;0.45;;;;;;;14.92;56.92;98802.59;10294665;28;20116;-61
2023/09/22 16:56:10;;;;;;;0.88;0.88;;;;;;;14.85;57.53;98804.97;10293232;28;20282;-61
2023/09/22 17:01:12;;;;;;;0.80;0.80;;;;;;;14.80;57.59;98799.31;10277245;28;20320;-61
2023/09/22 17:06:14;;;;;;;2.80;1.00;;;;;;;14.73;58.08;98797.41;10295903;28;20064;-61
2023/09/22 17:11:16;;;;;;;2.40;1.50;;;;;;;14.80;58.57;98795.88;10294427;28;20053;-61
2023/09/22 17:16:19;;;;;;;2.50;0.68;;;;;;;14.88;58.42;98788.88;10287421;28;20042;-61
2023/09/22 17:21:21;;;;;;;0.40;0.40;;;;;;;14.63;59.17;98759.78;10294813;28;20046;-62
2023/09/22 17:26:33;;;;;;;0.82;0.60;;;;;;;14.41;60.18;98758.31;10295463;28;20045;-61
2023/09/22 17:31:35;;;;;;;2.15;1.38;;;;;;;14.55;60.19;98766.59;10290926;28;20689;-62
2023/09/22 17:36:37;;;;;;;3.28;1.13;;;;;;;14.34;60.39;98770.38;10292644;28;20064;-61
2023/09/22 17:41:39;;;;;;;0.77;0.63;;;;;;;14.11;61.12;98766.41;10290577;28;20034;-61
2023/09/22 17:46:41;;;;;;;2.63;0.80;;;;;;;14.14;61.25;98780.13;10288561;28;20719;-62
2023/09/22 17:51:44;;;;;;;1.10;0.40;;;;;;;14.03;61.29;98790.78;10273787;28;20054;-62
2023/09/22 17:56:47;;;;;;;0.95;0.45;;;;;;;13.79;61.75;98785.16;10276280;28;20069;-60
2023/09/22 18:01:51;;;;;;;1.42;0.80;;;;;;;13.71;62.13;98800.78;10301284;28;20042;-60
2023/09/22 18:06:54;;;;;;;0.90;0.60;;;;;;;13.59;62.71;98807.16;10318819;28;20159;-60
2023/09/22 18:11:56;;;;;;;0.52;0.50;;;;;;;13.61;63.03;98815.72;10301812;28;20050;-60
2023/09/22 18:16:59;;;;;;;0.45;0.45;;;;;;;13.58;63.21;98813.34;10303754;28;20052;-60
2023/09/22 18:22:02;;;;;;;1.48;0.80;;;;;;;13.47;63.67;98816.13;10271745;28;20489;-60
2023/09/22 18:27:04;;;;;;;1.67;0.95;;;;;;;13.40;63.93;98807.94;10294723;28;20159;-60
2023/09/22 18:32:06;;;;;;;1.38;0.70;;;;;;;13.35;63.82;98819.81;10291668;28;20472;-60
2023/09/22 18:37:12;;;;;;;0.65;0.60;;;;;;;13.28;64.40;98818.69;10291427;28;20046;-60
2023/09/22 18:42:14;;;;;;;0.85;0.63;;;;;;;13.20;64.33;98829.03;10295308;28;20046;-60
2023/09/22 18:47:16;;;;;;;1.08;0.70;;;;;;;13.13;64.50;98828.72;10296884;28;20442;-60
2023/09/22 18:52:18;;;;;;;1.20;0.40;;;;;;;13.15;64.45;98831.25;10296853;28;20779;-61
2023/09/22 18:57:20;;;;;;;2.28;0.60;;;;;;;13.07;64.83;98836.34;10298356;28;20082;-60
2023/09/22 19:02:22;;;;;;;0.38;0.38;;;;;;;13.10;64.45;98847.38;10296708;28;20453;-60
2023/09/22 19:07:25;;;;;;;1.35;0.90;;;;;;;13.04;64.24;98847.09;10298614;28;20417;-60
2023/09/22 19:12:27;;;;;;;0.88;0.60;;;;;;;13.00;64.41;98861.44;10279374;28;20046;-60
2023/09/22 19:17:29;;;;;;;0.73;0.63;;;;;;;12.98;64.58;98871.22;10296441;28;20693;-60
2023/09/22 19:22:31;;;;;;;1.67;0.70;;;;;;;12.89;64.51;98878.94;10297807;28;20058;-60
2023/09/22 19:27:34;;;;;;;1.63;0.98;;;;;;;12.80;64.78;98887.59;10289805;28;20073;-60
2023/09/22 19:32:37;;;;;;;1.25;0.80;;;;;;;12.83;64.81;98897.81;10294831;28;20125;-60
2023/09/22 19:37:41;;;;;;;4.07;0.90;;;;;;;12.67;64.87;98913.22;10296663;28;20081;-60
2023/09/22 19:42:44;;;;;;;1.10;0.80;;;;;;;12.56;64.82;98929.00;10269555;28;20046;-60
2023/09/22 19:47:48;;;;;;;1.45;0.68;;;;;;;12.54;65.02;98930.09;10294711;28;20042;-60
2023/09/22 19:52:51;;;;;;;0.50;0.40;;;;;;;12.48;65.27;98933.22;10290952;28;20054;-61
2023/09/22 19:57:53;;;;;;;3.30;0.70;;;;;;;12.24;65.03;98949.16;10292754;28;20043;-61
2023/09/22 20:02:56;;;;;;;0.63;0.63;;;;;;;12.16;65.50;98962.06;10264784;28;20100;-61
2023/09/22 20:07:59;;;;;;;0.70;0.70;;;;;;;12.16;65.41;98956.81;10301600;28;20145;-60
2023/09/22 20:13:01;;;;;;;0.77;0.60;;;;;;;12.17;65.39;98966.38;10298795;28;20413;-60
2023/09/22 20:18:03;;;;;;;0.95;0.68;;;;;;;12.23;65.71;98976.34;10299842;28;20042;-60
2023/09/22 20:23:06;;;;;;;1.55;0.63;;;;;;;12.27;65.48;98976.94;10297938;28;20712;-60
2023/09/22 20:28:09;;;;;;;0.77;0.63;;;;;;;12.23;65.67;98976.34;10272290;28;20043;-61
2023/09/22 20:33:11;;;;;;;3.53;1.45;;;;;;;12.24;66.04;98980.63;10280147;28;20418;-60
2023/09/22 20:38:15;;;;;;;0.75;0.73;;;;;;;12.28;66.17;98974.19;10297638;28;20570;-60
2023/09/22 20:43:20;;;;;;;0.98;0.52;;;;;;;12.27;66.14;98983.00;10299017;28;20070;-60
2023/09/22 20:48:24;;;;;;;0.98;0.50;;;;;;;12.25;66.01;98998.03;10298144;28;20533;-60
2023/09/22 20:53:28;;;;;;;1.70;0.90;;;;;;;12.27;66.04;99001.38;10298408;28;20370;-60
2023/09/22 20:58:30;;;;;;;0.70;0.65;;;;;;;12.27;66.07;99014.47;10297366;28;20042;-60
2023/09/22 21:03:32;;;;;;;1.95;0.90;;;;;;;12.24;65.98;99013.88;10296929;28;20058;-60
2023/09/22 21:08:36;;;;;;;0.57;0.50;;;;;;;12.30;66.00;99019.47;10278044;28;20038;-60
2023/09/22 21:13:38;;;;;;;0.43;0.35;;;;;;;12.45;65.45;99022.66;10296717;28;20293;-59
2023/09/22 21:18:40;;;;;;;0.50;0.50;;;;;;;12.45;65.39;99014.78;10281051;28;20065;-60
2023/09/22 21:23:42;;;;;;;0.60;0.50;;;;;;;12.34;65.24;99036.63;10297626;28;20080;-60
2023/09/22 21:28:44;;;;;;;0.80;0.28;;;;;;;12.32;65.57;99033.28;10299093;28;20133;-59
2023/09/22 21:33:46;;;;;;;0.70;0.60;;;;;;;12.39;65.30;99038.88;10293105;28;20350;-59
2023/09/22 21:38:53;;;;;;;0.60;0.38;;;;;;;12.55;64.88;99053.25;10310785;28;20077;-60
2023/09/22 21:43:55;;;;;;;0.47;0.47;;;;;;;12.42;65.00;99064.84;10311564;28;20054;-60
2023/09/22 21:48:57;;;;;;;0.30;0.30;;;;;;;12.39;64.87;99063.31;10309055;28;20045;-60
2023/09/22 21:53:59;;;;;;;1.70;0.68;;;;;;;12.37;64.74;99077.50;10292363;28;20039;-60
2023/09/22 21:59:01;;;;;;;1.00;0.40;;;;;;;12.37;64.67;99091.47;10292898;28;20137;-60
2023/09/22 22:04:05;;;;;;;0.35;0.35;;;;;;;12.31;64.90;99102.44;10308769;28;20046;-60
2023/09/22 22:09:09;;;;;;;0.35;0.35;;;;;;;12.32;64.68;99083.13;10292211;28;20053;-60
2023/09/22 22:14:14;;;;;;;0.40;0.40;;;;;;;12.27;64.90;99090.50;10308580;28;20428;-60
2023/09/22 22:19:18;;;;;;;2.53;0.77;;;;;;;12.31;64.83;99097.19;10309744;28;20046;-61
2023/09/22 22:24:21;;;;;;;0.47;0.47;;;;;;;12.17;64.66;99107.06;10309091;28;20502;-61
2023/09/22 22:29:24;;;;;;;0.22;0.22;;;;;;;12.11;64.77;99111.84;10310226;28;20051;-61
2023/09/22 22:34:28;;;;;;;0.80;0.50;;;;;;;12.01;64.88;99116.13;10290848;28;20053;-61
2023/09/22 22:39:31;;;;;;;0.55;0.50;;;;;;;11.96;65.03;99113.06;10292811;28;20315;-61
2023/09/22 22:44:34;;;;;;;0.30;0.30;;;;;;;11.92;64.98;99109.00;10302001;28;20518;-61
2023/09/22 22:49:37;;;;;;;0.47;0.47;;;;;;;11.88;65.01;99123.31;10300481;28;20072;-61
2023/09/22 22:54:39;;;;;;;0.30;0.30;;;;;;;11.88;64.95;99132.94;10301245;28;20119;-61
2023/09/22 22:59:41;;;;;;;0.38;0.38;;;;;;;11.72;65.24;99153.41;10301648;28;20046;-61
2023/09/22 23:04:44;;;;;;;0.80;0.30;;;;;;;11.65;65.51;99162.69;10302736;28;20402;-60
2023/09/22 23:09:47;;;;;;;0.40;0.40;;;;;;;11.85;64.92;99169.84;10301892;28;20068;-61
2023/09/22 23:14:49;;;;;;;1.10;0.45;;;;;;;12.03;64.55;99173.66;10301342;28;20928;-61
2023/09/22 23:19:51;;;;;;;0.38;0.38;;;;;;;11.93;64.47;99183.19;10302293;28;20128;-61
2023/09/22 23:24:53;;;;;;;0.30;0.30;;;;;;;11.82;64.72;99191.91;10300749;28;20081;-61
2023/09/22 23:29:56;;;;;;;0.43;0.38;;;;;;;11.89;64.43;99197.47;10281860;28;20043;-61